createdAt,value
2019-02-28T00:00:40.640Z,26.77
2019-02-28T00:03:27.264Z,28.80
2019-02-28T00:06:12.941Z,28.40
2019-02-28T00:08:58.652Z,36.20
2019-02-28T00:11:44.044Z,31.77
2019-02-28T00:14:29.507Z,33.60
2019-02-28T00:17:14.848Z,28.80
2019-02-28T00:20:00.351Z,31.63
2019-02-28T00:22:48.434Z,33.30
2019-02-28T00:25:37.709Z,30.87
2019-02-28T00:28:23.158Z,33.73
2019-02-28T00:31:08.272Z,34.77
2019-02-28T00:33:54.420Z,34.80
2019-02-28T00:36:40.061Z,39.80
2019-02-28T00:39:25.388Z,38.23
2019-02-28T00:42:11.770Z,37.63
2019-02-28T00:44:57.517Z,41.83
2019-02-28T00:47:43.102Z,35.63
2019-02-28T00:50:28.722Z,40.97
2019-02-28T00:53:14.174Z,40.43
2019-02-28T00:55:59.848Z,42.57
2019-02-28T00:58:45.708Z,43.40
2019-02-28T01:01:31.268Z,43.53
2019-02-28T01:04:17.356Z,46.03
2019-02-28T01:07:02.925Z,50.87
2019-02-28T01:09:48.280Z,45.90
2019-02-28T01:12:35.405Z,46.57
2019-02-28T01:15:20.698Z,48.33
2019-02-28T01:18:06.184Z,43.23
2019-02-28T01:20:51.925Z,44.40
2019-02-28T01:23:37.480Z,45.57
2019-02-28T01:26:22.829Z,43.57
2019-02-28T01:29:08.475Z,50.43
2019-02-28T01:31:54.048Z,46.60
2019-02-28T01:34:40.096Z,44.53
2019-02-28T01:37:25.640Z,46.17
2019-02-28T01:40:11.411Z,50.77
2019-02-28T01:42:56.976Z,53.43
2019-02-28T01:45:45.188Z,53.67
2019-02-28T01:48:30.876Z,50.93
2019-02-28T01:51:16.268Z,50.67
2019-02-28T01:54:01.754Z,51.57
2019-02-28T01:56:47.216Z,60.17
2019-02-28T01:59:32.536Z,54.80
2019-02-28T02:02:18.304Z,51.67
2019-02-28T02:05:04.557Z,52.97
2019-02-28T02:07:51.332Z,54.43
2019-02-28T02:10:36.932Z,57.97
2019-02-28T02:13:22.201Z,57.23
2019-02-28T02:16:07.532Z,58.27
2019-02-28T02:18:52.920Z,57.83
2019-02-28T02:21:38.239Z,56.60
2019-02-28T02:24:27.974Z,58.10
2019-02-28T02:27:11.973Z,61.97
2019-02-28T02:29:57.237Z,53.80
2019-02-28T02:32:42.676Z,54.37
2019-02-28T02:35:28.266Z,59.93
2019-02-28T02:38:13.994Z,55.90
2019-02-28T02:41:01.032Z,52.43
2019-02-28T02:43:46.666Z,55.00
2019-02-28T02:46:32.125Z,56.40
2019-02-28T02:49:19.860Z,56.40
2019-02-28T02:52:05.088Z,53.90
2019-02-28T02:54:52.241Z,53.47
2019-02-28T02:57:38.154Z,56.83
2019-02-28T03:00:24.155Z,56.07
2019-02-28T03:03:09.464Z,55.10
2019-02-28T03:05:54.733Z,58.30
2019-02-28T03:08:40.450Z,51.20
2019-02-28T03:11:26.231Z,53.60
2019-02-28T03:14:16.350Z,54.07
2019-02-28T03:16:59.781Z,54.90
2019-02-28T03:19:45.183Z,53.77
2019-02-28T03:22:30.660Z,57.13
2019-02-28T03:25:16.262Z,59.23
2019-02-28T03:28:01.856Z,57.33
2019-02-28T03:30:47.677Z,53.83
2019-02-28T03:33:33.274Z,68.37
2019-02-28T03:36:19.180Z,58.40
2019-02-28T03:39:05.816Z,60.73
2019-02-28T03:41:52.916Z,55.80
2019-02-28T03:44:39.330Z,58.73
2019-02-28T03:47:25.213Z,62.13
2019-02-28T03:50:10.852Z,66.27
2019-02-28T03:52:56.375Z,62.47
2019-02-28T03:55:41.792Z,68.87
2019-02-28T03:58:27.573Z,59.17
2019-02-28T04:01:13.393Z,71.97
2019-02-28T04:03:58.705Z,68.57
2019-02-28T04:06:44.397Z,71.40
2019-02-28T04:09:29.845Z,70.03
2019-02-28T04:12:15.328Z,67.70
2019-02-28T04:15:00.939Z,66.60
2019-02-28T04:17:46.736Z,73.87
2019-02-28T04:20:37.583Z,74.93
2019-02-28T04:23:20.302Z,68.37
2019-02-28T04:26:05.919Z,77.07
2019-02-28T04:28:54.722Z,74.63
2019-02-28T04:31:39.022Z,65.60
2019-02-28T04:34:24.456Z,69.30
2019-02-28T04:37:10.075Z,74.53
2019-02-28T04:39:55.606Z,65.77
2019-02-28T04:42:41.370Z,72.57
2019-02-28T04:45:27.071Z,78.63
2019-02-28T04:48:14.024Z,73.93
2019-02-28T04:51:02.262Z,77.50
2019-02-28T04:53:52.783Z,73.83
2019-02-28T04:56:35.452Z,80.40
2019-02-28T04:59:21.130Z,78.60
2019-02-28T05:02:06.548Z,78.60
2019-02-28T05:04:52.713Z,77.90
2019-02-28T05:07:38.204Z,79.80
2019-02-28T05:10:23.610Z,82.87
2019-02-28T05:13:11.461Z,74.73
2019-02-28T05:15:56.566Z,83.97
2019-02-28T05:18:42.015Z,77.87
2019-02-28T05:21:28.054Z,81.00
2019-02-28T05:24:13.633Z,75.50
2019-02-28T05:27:00.334Z,83.13
2019-02-28T05:29:47.044Z,82.30
2019-02-28T05:32:35.648Z,82.70
2019-02-28T05:35:25.547Z,91.17
2019-02-28T05:38:07.654Z,89.33
2019-02-28T05:40:55.458Z,88.60
2019-02-28T05:43:41.610Z,83.67
2019-02-28T05:46:26.997Z,85.33
2019-02-28T05:49:12.934Z,80.30
2019-02-28T05:51:59.767Z,86.50
2019-02-28T05:54:47.358Z,92.83
2019-02-28T05:57:33.062Z,98.93
2019-02-28T06:00:20.231Z,100.60
2019-02-28T06:03:05.820Z,93.17
2019-02-28T06:05:51.491Z,97.23
2019-02-28T06:08:39.141Z,91.43
2019-02-28T06:11:24.578Z,99.73
2019-02-28T06:14:10.230Z,90.97
2019-02-28T06:16:55.777Z,89.77
2019-02-28T06:19:43.567Z,89.13
2019-02-28T06:22:31.079Z,98.20
2019-02-28T06:25:23.856Z,91.07
2019-02-28T06:28:03.876Z,88.70
2019-02-28T06:30:49.378Z,107.53
2019-02-28T06:33:35.382Z,92.17
2019-02-28T06:36:20.666Z,95.53
2019-02-28T06:39:07.023Z,107.93
2019-02-28T06:41:52.326Z,103.30
2019-02-28T06:44:37.736Z,100.80
2019-02-28T06:47:23.398Z,99.63
2019-02-28T06:50:12.954Z,92.57
2019-02-28T06:52:59.318Z,95.83
2019-02-28T06:55:48.702Z,92.40
2019-02-28T06:58:34.068Z,96.30
2019-02-28T07:01:22.645Z,105.00
2019-02-28T07:04:06.851Z,98.97
2019-02-28T07:06:52.426Z,93.13
2019-02-28T07:09:38.024Z,99.33
2019-02-28T07:12:29.158Z,100.90
2019-02-28T07:15:11.339Z,103.43
2019-02-28T07:17:56.588Z,98.47
2019-02-28T07:20:41.987Z,100.87
2019-02-28T07:23:30.076Z,95.97
2019-02-28T07:26:14.972Z,87.23
2019-02-28T07:29:00.664Z,91.00
2019-02-28T07:31:45.970Z,81.70
2019-02-28T07:34:31.429Z,89.30
2019-02-28T07:37:19.018Z,89.83
2019-02-28T07:40:05.133Z,78.80
2019-02-28T07:42:50.426Z,86.93
2019-02-28T07:45:36.147Z,84.80
2019-02-28T07:48:26.508Z,87.00
2019-02-28T07:51:09.311Z,80.90
2019-02-28T07:53:54.923Z,75.83
2019-02-28T07:56:43.118Z,85.93
2019-02-28T07:59:28.048Z,83.27
2019-02-28T08:02:13.685Z,85.23
2019-02-28T08:04:59.425Z,86.67
2019-02-28T08:07:50.490Z,82.70
2019-02-28T08:10:33.157Z,85.70
2019-02-28T08:13:19.213Z,85.23
2019-02-28T08:16:04.551Z,78.87
2019-02-28T08:18:51.276Z,77.43
2019-02-28T08:21:43.979Z,88.07
2019-02-28T08:24:26.585Z,85.70
2019-02-28T08:27:12.541Z,85.37
2019-02-28T08:29:57.951Z,91.03
2019-02-28T08:32:46.046Z,84.87
2019-02-28T08:35:34.875Z,83.07
2019-02-28T08:38:18.079Z,89.83
2019-02-28T08:41:03.639Z,84.47
2019-02-28T08:43:49.291Z,87.33
2019-02-28T08:46:34.699Z,85.93
2019-02-28T08:49:20.335Z,87.37
2019-02-28T08:52:07.968Z,93.33
2019-02-28T08:54:53.514Z,93.20
2019-02-28T08:57:42.054Z,88.17
2019-02-28T09:00:31.700Z,93.90
2019-02-28T09:03:15.166Z,92.83
2019-02-28T09:06:03.831Z,99.83
2019-02-28T09:08:48.750Z,96.30
2019-02-28T09:11:34.083Z,99.37
2019-02-28T09:14:19.747Z,87.43
2019-02-28T09:17:05.339Z,98.83
2019-02-28T09:19:50.659Z,90.87
2019-02-28T09:22:36.116Z,84.63
2019-02-28T09:25:22.759Z,96.40
2019-02-28T09:28:10.203Z,85.10
2019-02-28T09:30:56.390Z,90.33
2019-02-28T09:33:41.923Z,95.80
2019-02-28T09:36:27.675Z,99.50
2019-02-28T09:39:16.387Z,99.67
2019-02-28T09:42:00.746Z,100.37
2019-02-28T09:44:46.492Z,97.10
2019-02-28T09:47:32.487Z,94.53
2019-02-28T09:50:19.358Z,96.60
2019-02-28T09:53:06.090Z,89.83
2019-02-28T09:55:51.692Z,95.50
2019-02-28T09:58:37.036Z,90.23
2019-02-28T10:01:24.409Z,100.07
2019-02-28T10:04:10.423Z,97.47
2019-02-28T10:06:56.868Z,91.57
2019-02-28T10:09:44.204Z,91.27
2019-02-28T10:12:30.464Z,96.33
2019-02-28T10:15:17.481Z,93.07
2019-02-28T10:18:04.450Z,91.37
2019-02-28T10:20:50.560Z,90.47
2019-02-28T10:23:35.969Z,91.13
2019-02-28T10:26:21.916Z,83.67
2019-02-28T10:29:08.143Z,86.50
2019-02-28T10:31:54.031Z,93.10
2019-02-28T10:34:39.684Z,88.80
2019-02-28T10:37:25.112Z,95.90
2019-02-28T10:40:14.261Z,86.77
2019-02-28T10:43:00.838Z,91.57
2019-02-28T10:45:46.225Z,83.87
2019-02-28T10:48:32.096Z,87.23
2019-02-28T10:51:17.426Z,90.67
2019-02-28T10:54:03.331Z,86.97
2019-02-28T10:56:48.856Z,84.90
2019-02-28T10:59:34.288Z,87.73
2019-02-28T11:02:20.065Z,93.07
2019-02-28T11:05:07.970Z,89.20
2019-02-28T11:07:53.650Z,90.83
2019-02-28T11:10:43.052Z,98.40
2019-02-28T11:13:28.567Z,92.47
2019-02-28T11:16:15.684Z,86.97
2019-02-28T11:19:01.164Z,89.63
2019-02-28T11:21:47.072Z,91.57
2019-02-28T11:24:32.688Z,85.27
2019-02-28T11:27:19.722Z,91.03
2019-02-28T11:30:07.440Z,98.63
2019-02-28T11:32:54.152Z,86.37
2019-02-28T11:35:39.791Z,93.63
2019-02-28T11:38:25.596Z,98.57
2019-02-28T11:41:11.380Z,89.73
2019-02-28T11:43:57.241Z,91.90
2019-02-28T11:46:43.780Z,89.33
2019-02-28T11:49:30.148Z,86.73
2019-02-28T11:52:16.081Z,89.00
2019-02-28T11:55:01.653Z,93.93
2019-02-28T11:57:47.408Z,88.47
2019-02-28T12:00:35.667Z,87.93
2019-02-28T12:03:20.060Z,86.73
2019-02-28T12:06:06.859Z,92.23
2019-02-28T12:08:54.400Z,90.07
2019-02-28T12:11:39.808Z,94.73
2019-02-28T12:14:26.488Z,88.23
2019-02-28T12:17:15.020Z,89.57
2019-02-28T12:20:03.867Z,113.23
2019-02-28T12:22:50.847Z,94.07
2019-02-28T12:25:39.527Z,95.90
2019-02-28T12:28:24.981Z,89.93
2019-02-28T12:31:11.318Z,89.03
2019-02-28T12:33:57.717Z,90.50
2019-02-28T12:36:46.335Z,91.63
2019-02-28T12:39:33.339Z,89.37
2019-02-28T12:42:19.362Z,84.93
2019-02-28T12:45:08.374Z,90.37
2019-02-28T12:47:54.401Z,88.10
2019-02-28T12:50:40.437Z,86.97
2019-02-28T12:53:26.600Z,98.43
2019-02-28T12:56:14.226Z,88.20
2019-02-28T12:59:00.417Z,86.07
2019-02-28T13:01:46.516Z,87.63
2019-02-28T13:04:32.547Z,91.47
2019-02-28T13:07:20.789Z,83.70
2019-02-28T13:10:08.871Z,81.07
2019-02-28T13:13:05.608Z,83.13
2019-02-28T13:15:46.604Z,81.27
2019-02-28T13:18:32.898Z,62.50
2019-02-28T13:21:18.668Z,71.80
2019-02-28T13:24:06.087Z,62.70
2019-02-28T13:26:52.584Z,64.67
2019-02-28T13:29:38.875Z,63.23
2019-02-28T13:32:28.335Z,59.83
2019-02-28T13:35:15.677Z,66.57
2019-02-28T13:38:02.802Z,65.07
2019-02-28T13:40:48.797Z,63.00
2019-02-28T13:43:34.713Z,61.97
2019-02-28T13:46:21.003Z,62.20
2019-02-28T13:49:08.434Z,63.80
2019-02-28T13:51:54.339Z,59.77
2019-02-28T13:54:42.097Z,69.00
2019-02-28T13:57:31.251Z,67.67
2019-02-28T14:00:21.862Z,68.33
2019-02-28T14:03:09.475Z,69.27
2019-02-28T14:05:56.143Z,60.57
2019-02-28T14:08:42.131Z,66.30
2019-02-28T14:11:30.213Z,70.03
2019-02-28T14:14:15.920Z,73.07
2019-02-28T14:17:02.033Z,70.37
2019-02-28T14:19:48.330Z,69.63
2019-02-28T14:22:33.993Z,70.10
2019-02-28T14:25:21.009Z,71.87
2019-02-28T14:28:07.377Z,73.10
2019-02-28T14:30:54.405Z,69.50
2019-02-28T14:33:41.826Z,75.70
2019-02-28T14:36:28.388Z,85.73
2019-02-28T14:39:14.560Z,81.47
2019-02-28T14:42:03.148Z,79.97
2019-02-28T14:44:47.795Z,78.00
2019-02-28T14:47:36.258Z,81.33
2019-02-28T14:50:22.703Z,86.13
2019-02-28T14:53:13.129Z,78.17
2019-02-28T14:55:56.211Z,79.80
2019-02-28T14:58:42.326Z,83.07
2019-02-28T15:01:28.348Z,92.50
2019-02-28T15:04:14.368Z,79.70
2019-02-28T15:07:03.035Z,76.63
2019-02-28T15:09:48.410Z,87.43
2019-02-28T15:12:34.220Z,83.73
2019-02-28T15:15:20.284Z,94.33
2019-02-28T15:18:06.095Z,83.97
2019-02-28T15:20:51.915Z,90.37
2019-02-28T15:23:37.695Z,95.93
2019-02-28T15:26:26.537Z,99.17
2019-02-28T15:29:11.873Z,97.67
2019-02-28T15:31:57.948Z,102.90
2019-02-28T15:34:43.749Z,92.60
2019-02-28T15:37:30.359Z,94.83
2019-02-28T15:40:24.721Z,95.07
2019-02-28T15:43:16.957Z,97.00
2019-02-28T15:45:59.969Z,92.10
2019-02-28T15:48:46.292Z,98.90
2019-02-28T15:51:33.016Z,95.10
2019-02-28T15:54:21.623Z,93.57
2019-02-28T15:57:06.654Z,92.70
2019-02-28T15:59:52.756Z,91.97
2019-02-28T16:02:42.168Z,94.27
2019-02-28T16:05:27.312Z,94.80
2019-02-28T16:08:13.593Z,91.40
2019-02-28T16:10:59.725Z,96.73
2019-02-28T16:13:45.499Z,90.63
2019-02-28T16:16:32.160Z,96.87
2019-02-28T16:19:18.787Z,97.97
2019-02-28T16:22:06.139Z,110.43
2019-02-28T16:24:52.342Z,102.23
2019-02-28T16:27:38.233Z,106.13
2019-02-28T16:30:24.133Z,116.07
2019-02-28T16:33:10.135Z,99.33
2019-02-28T16:35:56.295Z,100.67
2019-02-28T16:38:42.479Z,108.60
2019-02-28T16:41:30.013Z,105.73
2019-02-28T16:44:16.377Z,115.10
2019-02-28T16:47:02.481Z,103.80
2019-02-28T16:49:48.385Z,107.90
2019-02-28T16:52:37.336Z,96.23
2019-02-28T16:55:22.697Z,89.23
2019-02-28T16:58:08.569Z,88.93
2019-02-28T17:00:54.824Z,82.30
2019-02-28T17:03:41.743Z,80.10
2019-02-28T17:06:28.493Z,83.53
2019-02-28T17:09:18.856Z,76.93
2019-02-28T17:12:23.683Z,73.77
2019-02-28T17:15:26.397Z,78.13
2019-02-28T17:18:18.398Z,79.90
2019-02-28T17:21:03.391Z,70.87
2019-02-28T17:23:49.133Z,71.07
2019-02-28T17:27:06.369Z,69.93
2019-02-28T17:30:10.900Z,77.70
2019-02-28T17:32:56.900Z,72.40
2019-02-28T17:35:43.141Z,70.03
2019-02-28T17:38:28.741Z,75.20
2019-02-28T17:41:14.833Z,72.57
2019-02-28T17:44:38.618Z,72.70
2019-02-28T17:47:52.396Z,75.87
2019-02-28T17:51:18.850Z,77.90
2019-02-28T17:54:29.372Z,80.93
2019-02-28T17:57:48.813Z,83.07
2019-02-28T18:01:17.236Z,80.67
2019-02-28T18:04:45.829Z,83.70
2019-02-28T18:07:57.831Z,77.27
2019-02-28T18:11:21.017Z,80.57
2019-02-28T18:14:27.801Z,81.20
2019-02-28T18:17:55.533Z,80.47
2019-02-28T18:21:22.818Z,92.47
2019-02-28T18:24:38.034Z,81.77
2019-02-28T18:28:00.405Z,78.07
2019-02-28T18:31:06.126Z,86.33
2019-02-28T18:34:09.005Z,82.13
2019-02-28T18:36:54.592Z,82.23
2019-02-28T18:39:40.758Z,81.57
2019-02-28T18:42:26.943Z,76.93
2019-02-28T18:45:15.593Z,77.33
2019-02-28T18:48:02.707Z,70.80
2019-02-28T18:50:48.485Z,58.00
2019-02-28T18:53:34.341Z,63.57
2019-02-28T18:56:20.485Z,62.43
2019-02-28T18:59:06.262Z,64.83
2019-02-28T19:01:52.385Z,58.37
2019-02-28T19:04:39.313Z,58.30
2019-02-28T19:07:25.202Z,54.10
2019-02-28T19:10:11.229Z,51.67
2019-02-28T19:12:57.006Z,59.47
2019-02-28T19:15:42.733Z,49.73
2019-02-28T19:18:29.706Z,45.80
2019-02-28T19:21:15.666Z,59.17
2019-02-28T19:24:02.726Z,49.30
2019-02-28T19:26:48.921Z,47.90
2019-02-28T19:29:34.562Z,39.80
2019-02-28T19:32:20.531Z,36.50
2019-02-28T19:35:06.778Z,40.63
2019-02-28T19:37:52.551Z,46.37
2019-02-28T19:40:38.442Z,39.97
2019-02-28T19:43:24.737Z,41.87
2019-02-28T19:46:11.486Z,42.20
2019-02-28T19:48:58.866Z,43.80
2019-02-28T19:51:45.094Z,39.87
2019-02-28T19:54:30.856Z,36.10
2019-02-28T19:57:18.787Z,34.30
2019-02-28T20:00:06.068Z,33.17
2019-02-28T20:02:52.070Z,34.57
2019-02-28T20:05:38.225Z,34.23
2019-02-28T20:08:24.472Z,33.67
2019-02-28T20:11:10.474Z,33.57
2019-02-28T20:13:56.207Z,30.60
2019-02-28T20:16:42.301Z,31.27
2019-02-28T20:19:27.982Z,31.57
2019-02-28T20:22:13.855Z,33.20
2019-02-28T20:25:00.286Z,32.10
2019-02-28T20:27:46.329Z,26.43
2019-02-28T20:30:32.509Z,24.40
2019-02-28T20:33:18.583Z,27.13
2019-02-28T20:36:04.194Z,24.33
2019-02-28T20:38:52.226Z,25.00
2019-02-28T20:41:38.209Z,29.07
2019-02-28T20:44:25.268Z,25.77
2019-02-28T20:47:11.567Z,23.03
2019-02-28T20:49:57.690Z,24.13
2019-02-28T20:52:43.946Z,29.97
2019-02-28T20:55:31.785Z,28.23
2019-02-28T20:58:17.945Z,28.47
2019-02-28T21:01:04.050Z,30.90
2019-02-28T21:03:49.932Z,26.10
2019-02-28T21:06:36.257Z,27.33
2019-02-28T21:09:22.609Z,31.20
2019-02-28T21:12:08.621Z,25.73
2019-02-28T21:14:54.513Z,25.20
2019-02-28T21:17:40.501Z,30.67
2019-02-28T21:20:27.150Z,30.37
2019-02-28T21:23:13.963Z,30.60
2019-02-28T21:26:00.963Z,29.33
2019-02-28T21:28:46.682Z,27.53
2019-02-28T21:31:33.475Z,31.73
2019-02-28T21:34:19.380Z,31.30
2019-02-28T21:37:05.637Z,30.87
2019-02-28T21:39:51.991Z,30.57
2019-02-28T21:42:37.797Z,30.40
2019-02-28T21:45:23.610Z,33.00
2019-02-28T21:48:09.702Z,30.73
2019-02-28T21:50:55.535Z,31.07
2019-02-28T21:53:41.443Z,31.10
2019-02-28T21:56:27.641Z,31.03
2019-02-28T21:59:13.719Z,31.83
2019-02-28T22:01:59.658Z,27.17
2019-02-28T22:04:45.730Z,33.27
2019-02-28T22:07:31.603Z,30.23
2019-02-28T22:10:17.498Z,36.00
2019-02-28T22:13:03.595Z,34.90
2019-02-28T22:15:49.471Z,35.20
2019-02-28T22:18:35.379Z,34.23
2019-02-28T22:21:21.764Z,33.17
2019-02-28T22:24:07.716Z,33.10
2019-02-28T22:26:53.615Z,44.27
2019-02-28T22:29:39.719Z,44.90
2019-02-28T22:32:41.015Z,44.97
2019-02-28T22:35:36.372Z,46.60
2019-02-28T22:38:22.271Z,47.53
2019-02-28T22:41:08.059Z,47.83
2019-02-28T22:43:54.315Z,47.13
2019-02-28T22:46:40.103Z,50.93
2019-02-28T22:49:26.368Z,43.80
2019-02-28T22:52:12.606Z,49.17
2019-02-28T22:54:58.611Z,47.80
2019-02-28T22:57:44.423Z,45.83
2019-02-28T23:00:46.011Z,48.73
2019-02-28T23:03:32.324Z,46.53
2019-02-28T23:06:19.594Z,44.13
2019-02-28T23:09:06.575Z,53.33
2019-02-28T23:11:52.611Z,48.87
2019-02-28T23:14:38.615Z,58.70
2019-02-28T23:17:24.863Z,55.87
2019-02-28T23:20:10.705Z,62.40
2019-02-28T23:22:57.077Z,59.70
2019-02-28T23:25:42.944Z,61.37
2019-02-28T23:28:33.727Z,57.50
2019-02-28T23:31:59.668Z,65.20
2019-02-28T23:34:48.750Z,61.23
2019-02-28T23:37:34.432Z,70.63
2019-02-28T23:40:20.644Z,66.43
2019-02-28T23:43:06.347Z,68.67
2019-02-28T23:45:52.297Z,65.57
2019-02-28T23:48:38.289Z,75.63
2019-02-28T23:51:23.949Z,72.63
2019-02-28T23:54:12.027Z,75.73
2019-02-28T23:56:58.307Z,75.20
2019-02-28T23:59:44.195Z,72.93
